San Angelo, Texas
Current Conditions -  °F | °C
As of 6:51 AM on Saturday 25 Oct 2014 (Local Time) from KSJT Reporting Station
Clear Clear  
Wind Chill: 57°   Ceiling: Unl
Heat Index: 57°   Visibility: 10mi
Dew Point: 54°   Wind: 3mph
Humidity: 89%   Direction: 230°SW
Pressure: 30.16"   Gusts: NA
Location:  31.46°N, 100.44°W
Report Text: KSJT 251151Z 23003KT 10SM CLR 14/12 A3016 RMK AO2 SLP195 T01390122 10200 20128 53003
Loading
Personal Weather Stations






























Interactive Weather Map
Tropical Storm Tracking
New forecast layout! Learn more

10-Day Weather Forecast

Advertisements
Track Severe Weather on mobile